sensor_id;sensor_type;location;lat;lon;timestamp;P1;durP1;ratioP1;P2;durP2;ratioP2
17598;SDS011;8918;52.092;5.232;2024-03-02T00:00:21;3.90;;;1.60;;
17598;SDS011;8918;52.092;5.232;2024-03-02T00:02:49;2.47;;;1.73;;
17598;SDS011;8918;52.092;5.232;2024-03-02T00:05:19;2.30;;;1.70;;
17598;SDS011;8918;52.092;5.232;2024-03-02T00:07:46;3.27;;;1.60;;
17598;SDS011;8918;52.092;5.232;2024-03-02T00:10:19;3.37;;;1.73;;
17598;SDS011;8918;52.092;5.232;2024-03-02T00:12:50;2.37;;;1.70;;
17598;SDS011;8918;52.092;5.232;2024-03-02T00:18:07;1.83;;;1.40;;
17598;SDS011;8918;52.092;5.232;2024-03-02T00:20:36;2.80;;;1.50;;
17598;SDS011;8918;52.092;5.232;2024-03-02T00:23:06;2.10;;;1.50;;
17598;SDS011;8918;52.092;5.232;2024-03-02T00:25:36;1.93;;;1.10;;
17598;SDS011;8918;52.092;5.232;2024-03-02T00:28:25;1.53;;;0.80;;
17598;SDS011;8918;52.092;5.232;2024-03-02T00:31:10;0.70;;;0.70;;
17598;SDS011;8918;52.092;5.232;2024-03-02T00:36:07;0.40;;;0.40;;
17598;SDS011;8918;52.092;5.232;2024-03-02T00:38:34;0.73;;;0.60;;
17598;SDS011;8918;52.092;5.232;2024-03-02T00:41:07;0.50;;;0.50;;
17598;SDS011;8918;52.092;5.232;2024-03-02T00:44:16;0.50;;;0.50;;
17598;SDS011;8918;52.092;5.232;2024-03-02T00:46:23;0.70;;;0.50;;
17598;SDS011;8918;52.092;5.232;2024-03-02T00:48:56;1.23;;;0.47;;
17598;SDS011;8918;52.092;5.232;2024-03-02T00:51:24;0.50;;;0.50;;
17598;SDS011;8918;52.092;5.232;2024-03-02T00:53:51;0.50;;;0.50;;
17598;SDS011;8918;52.092;5.232;2024-03-02T00:56:18;1.17;;;0.60;;
17598;SDS011;8918;52.092;5.232;2024-03-02T00:58:44;0.70;;;0.60;;
17598;SDS011;8918;52.092;5.232;2024-03-02T01:01:10;1.70;;;0.60;;
17598;SDS011;8918;52.092;5.232;2024-03-02T01:03:36;0.83;;;0.60;;
17598;SDS011;8918;52.092;5.232;2024-03-02T01:06:02;1.07;;;0.77;;
17598;SDS011;8918;52.092;5.232;2024-03-02T01:08:29;2.07;;;0.90;;
17598;SDS011;8918;52.092;5.232;2024-03-02T01:10:54;0.83;;;0.60;;
17598;SDS011;8918;52.092;5.232;2024-03-02T01:13:21;0.87;;;0.77;;
17598;SDS011;8918;52.092;5.232;2024-03-02T01:15:48;0.60;;;0.60;;
17598;SDS011;8918;52.092;5.232;2024-03-02T01:18:14;1.07;;;0.80;;
17598;SDS011;8918;52.092;5.232;2024-03-02T01:20:40;0.70;;;0.70;;
17598;SDS011;8918;52.092;5.232;2024-03-02T01:23:06;0.80;;;0.70;;
17598;SDS011;8918;52.092;5.232;2024-03-02T01:25:32;0.80;;;0.80;;
17598;SDS011;8918;52.092;5.232;2024-03-02T01:27:58;1.17;;;0.70;;
17598;SDS011;8918;52.092;5.232;2024-03-02T01:30:23;0.70;;;0.70;;
17598;SDS011;8918;52.092;5.232;2024-03-02T01:32:49;1.43;;;0.70;;
17598;SDS011;8918;52.092;5.232;2024-03-02T01:35:14;1.00;;;0.90;;
17598;SDS011;8918;52.092;5.232;2024-03-02T01:37:40;0.80;;;0.80;;
17598;SDS011;8918;52.092;5.232;2024-03-02T01:40:06;0.70;;;0.60;;
17598;SDS011;8918;52.092;5.232;2024-03-02T01:42:37;0.83;;;0.70;;
17598;SDS011;8918;52.092;5.232;2024-03-02T01:45:07;2.73;;;0.70;;
17598;SDS011;8918;52.092;5.232;2024-03-02T01:47:34;2.87;;;0.60;;
17598;SDS011;8918;52.092;5.232;2024-03-02T01:50:00;0.73;;;0.70;;
17598;SDS011;8918;52.092;5.232;2024-03-02T01:52:26;2.90;;;0.80;;
17598;SDS011;8918;52.092;5.232;2024-03-02T01:54:52;1.07;;;0.70;;
17598;SDS011;8918;52.092;5.232;2024-03-02T01:57:19;1.83;;;0.80;;
17598;SDS011;8918;52.092;5.232;2024-03-02T01:59:45;1.03;;;0.70;;
17598;SDS011;8918;52.092;5.232;2024-03-02T02:02:14;1.53;;;0.70;;
17598;SDS011;8918;52.092;5.232;2024-03-02T02:04:40;1.30;;;0.80;;
17598;SDS011;8918;52.092;5.232;2024-03-02T02:07:06;0.70;;;0.70;;
17598;SDS011;8918;52.092;5.232;2024-03-02T02:09:32;0.70;;;0.70;;
17598;SDS011;8918;52.092;5.232;2024-03-02T02:11:57;1.00;;;0.80;;
17598;SDS011;8918;52.092;5.232;2024-03-02T02:14:24;1.13;;;0.80;;
17598;SDS011;8918;52.092;5.232;2024-03-02T02:16:49;1.17;;;0.70;;
17598;SDS011;8918;52.092;5.232;2024-03-02T02:19:15;0.70;;;0.70;;
17598;SDS011;8918;52.092;5.232;2024-03-02T02:21:43;0.80;;;0.80;;
17598;SDS011;8918;52.092;5.232;2024-03-02T02:24:09;1.10;;;0.80;;
17598;SDS011;8918;52.092;5.232;2024-03-02T02:26:35;1.20;;;0.90;;
17598;SDS011;8918;52.092;5.232;2024-03-02T02:29:01;1.97;;;0.80;;
17598;SDS011;8918;52.092;5.232;2024-03-02T02:31:27;1.00;;;0.90;;
17598;SDS011;8918;52.092;5.232;2024-03-02T02:34:01;0.93;;;0.87;;
17598;SDS011;8918;52.092;5.232;2024-03-02T02:36:26;1.23;;;1.00;;
17598;SDS011;8918;52.092;5.232;2024-03-02T02:38:52;1.47;;;0.90;;
17598;SDS011;8918;52.092;5.232;2024-03-02T02:41:19;1.20;;;0.80;;
17598;SDS011;8918;52.092;5.232;2024-03-02T02:43:44;1.07;;;0.90;;
17598;SDS011;8918;52.092;5.232;2024-03-02T02:46:10;1.20;;;0.97;;
17598;SDS011;8918;52.092;5.232;2024-03-02T02:48:35;1.63;;;1.23;;
17598;SDS011;8918;52.092;5.232;2024-03-02T02:51:01;1.00;;;0.70;;
17598;SDS011;8918;52.092;5.232;2024-03-02T02:53:27;0.80;;;0.80;;
17598;SDS011;8918;52.092;5.232;2024-03-02T02:55:52;1.20;;;0.70;;
17598;SDS011;8918;52.092;5.232;2024-03-02T02:58:19;1.00;;;0.70;;
17598;SDS011;8918;52.092;5.232;2024-03-02T03:00:45;0.70;;;0.60;;
17598;SDS011;8918;52.092;5.232;2024-03-02T03:03:10;1.43;;;1.00;;
17598;SDS011;8918;52.092;5.232;2024-03-02T03:05:36;1.00;;;0.70;;
17598;SDS011;8918;52.092;5.232;2024-03-02T03:08:02;1.67;;;0.90;;
17598;SDS011;8918;52.092;5.232;2024-03-02T03:10:28;2.33;;;0.90;;
17598;SDS011;8918;52.092;5.232;2024-03-02T03:12:55;0.83;;;0.80;;
17598;SDS011;8918;52.092;5.232;2024-03-02T03:15:21;1.20;;;0.80;;
17598;SDS011;8918;52.092;5.232;2024-03-02T03:17:47;0.70;;;0.70;;
17598;SDS011;8918;52.092;5.232;2024-03-02T03:20:13;0.87;;;0.70;;
17598;SDS011;8918;52.092;5.232;2024-03-02T03:22:40;1.33;;;0.77;;
17598;SDS011;8918;52.092;5.232;2024-03-02T03:25:05;1.13;;;0.70;;
17598;SDS011;8918;52.092;5.232;2024-03-02T03:27:35;0.97;;;0.67;;
17598;SDS011;8918;52.092;5.232;2024-03-02T03:30:01;1.00;;;0.60;;
17598;SDS011;8918;52.092;5.232;2024-03-02T03:32:27;1.37;;;0.80;;
17598;SDS011;8918;52.092;5.232;2024-03-02T03:34:54;2.00;;;0.70;;
17598;SDS011;8918;52.092;5.232;2024-03-02T03:37:19;1.90;;;0.80;;
17598;SDS011;8918;52.092;5.232;2024-03-02T03:39:45;0.70;;;0.70;;
17598;SDS011;8918;52.092;5.232;2024-03-02T03:42:11;1.77;;;0.63;;
17598;SDS011;8918;52.092;5.232;2024-03-02T03:44:36;4.23;;;0.87;;
17598;SDS011;8918;52.092;5.232;2024-03-02T03:47:02;1.60;;;0.60;;
17598;SDS011;8918;52.092;5.232;2024-03-02T03:49:27;2.57;;;0.80;;
17598;SDS011;8918;52.092;5.232;2024-03-02T03:51:54;0.90;;;0.70;;
17598;SDS011;8918;52.092;5.232;2024-03-02T03:54:19;0.70;;;0.60;;
17598;SDS011;8918;52.092;5.232;2024-03-02T03:56:45;2.43;;;0.80;;
17598;SDS011;8918;52.092;5.232;2024-03-02T03:59:11;1.27;;;0.87;;
17598;SDS011;8918;52.092;5.232;2024-03-02T04:01:37;1.63;;;0.80;;
17598;SDS011;8918;52.092;5.232;2024-03-02T04:04:02;1.40;;;0.60;;
17598;SDS011;8918;52.092;5.232;2024-03-02T04:06:28;1.57;;;0.80;;
17598;SDS011;8918;52.092;5.232;2024-03-02T04:08:54;0.60;;;0.60;;
17598;SDS011;8918;52.092;5.232;2024-03-02T04:11:20;0.60;;;0.60;;
17598;SDS011;8918;52.092;5.232;2024-03-02T04:13:46;1.73;;;0.70;;
17598;SDS011;8918;52.092;5.232;2024-03-02T04:16:12;1.00;;;0.77;;
17598;SDS011;8918;52.092;5.232;2024-03-02T04:18:38;1.63;;;1.00;;
17598;SDS011;8918;52.092;5.232;2024-03-02T04:21:04;1.67;;;0.87;;
17598;SDS011;8918;52.092;5.232;2024-03-02T04:23:30;1.50;;;0.70;;
17598;SDS011;8918;52.092;5.232;2024-03-02T04:25:56;1.07;;;0.70;;
17598;SDS011;8918;52.092;5.232;2024-03-02T04:28:22;1.30;;;0.83;;
17598;SDS011;8918;52.092;5.232;2024-03-02T04:30:47;1.23;;;0.60;;
17598;SDS011;8918;52.092;5.232;2024-03-02T04:33:13;2.23;;;0.90;;
17598;SDS011;8918;52.092;5.232;2024-03-02T04:35:38;1.23;;;0.80;;
17598;SDS011;8918;52.092;5.232;2024-03-02T04:38:04;2.20;;;0.70;;
17598;SDS011;8918;52.092;5.232;2024-03-02T04:40:30;2.70;;;0.80;;
17598;SDS011;8918;52.092;5.232;2024-03-02T04:42:57;2.30;;;0.80;;
17598;SDS011;8918;52.092;5.232;2024-03-02T04:45:24;1.63;;;0.70;;
17598;SDS011;8918;52.092;5.232;2024-03-02T04:47:52;1.07;;;0.80;;
17598;SDS011;8918;52.092;5.232;2024-03-02T04:50:17;1.67;;;0.80;;
17598;SDS011;8918;52.092;5.232;2024-03-02T04:52:44;1.10;;;0.70;;
17598;SDS011;8918;52.092;5.232;2024-03-02T04:55:09;0.73;;;0.73;;
17598;SDS011;8918;52.092;5.232;2024-03-02T04:57:42;4.07;;;0.80;;
17598;SDS011;8918;52.092;5.232;2024-03-02T05:00:09;0.70;;;0.70;;
17598;SDS011;8918;52.092;5.232;2024-03-02T05:02:35;0.73;;;0.70;;
17598;SDS011;8918;52.092;5.232;2024-03-02T05:05:00;1.23;;;0.70;;
17598;SDS011;8918;52.092;5.232;2024-03-02T05:07:27;1.20;;;0.80;;
17598;SDS011;8918;52.092;5.232;2024-03-02T05:09:53;1.40;;;0.60;;
17598;SDS011;8918;52.092;5.232;2024-03-02T05:12:19;1.17;;;0.73;;
17598;SDS011;8918;52.092;5.232;2024-03-02T05:15:20;2.00;;;0.80;;
17598;SDS011;8918;52.092;5.232;2024-03-02T05:17:46;1.93;;;0.80;;
17598;SDS011;8918;52.092;5.232;2024-03-02T05:20:12;1.27;;;0.83;;
17598;SDS011;8918;52.092;5.232;2024-03-02T05:22:38;0.70;;;0.70;;
17598;SDS011;8918;52.092;5.232;2024-03-02T05:25:04;2.50;;;0.73;;
17598;SDS011;8918;52.092;5.232;2024-03-02T05:27:31;1.67;;;0.73;;
17598;SDS011;8918;52.092;5.232;2024-03-02T05:29:57;2.40;;;0.80;;
17598;SDS011;8918;52.092;5.232;2024-03-02T05:32:23;1.37;;;0.70;;
17598;SDS011;8918;52.092;5.232;2024-03-02T05:34:49;1.97;;;0.90;;
17598;SDS011;8918;52.092;5.232;2024-03-02T05:37:15;0.67;;;0.60;;
17598;SDS011;8918;52.092;5.232;2024-03-02T05:39:41;2.60;;;0.90;;
17598;SDS011;8918;52.092;5.232;2024-03-02T05:42:08;1.27;;;0.70;;
17598;SDS011;8918;52.092;5.232;2024-03-02T05:44:34;1.33;;;0.73;;
17598;SDS011;8918;52.092;5.232;2024-03-02T05:47:03;1.33;;;0.80;;
17598;SDS011;8918;52.092;5.232;2024-03-02T05:49:29;1.20;;;0.70;;
17598;SDS011;8918;52.092;5.232;2024-03-02T05:51:55;1.90;;;0.80;;
17598;SDS011;8918;52.092;5.232;2024-03-02T05:54:20;1.73;;;0.90;;
17598;SDS011;8918;52.092;5.232;2024-03-02T05:56:46;2.10;;;0.70;;
17598;SDS011;8918;52.092;5.232;2024-03-02T05:59:12;1.57;;;0.70;;
17598;SDS011;8918;52.092;5.232;2024-03-02T06:01:46;1.63;;;0.70;;
17598;SDS011;8918;52.092;5.232;2024-03-02T06:04:13;2.23;;;0.70;;
17598;SDS011;8918;52.092;5.232;2024-03-02T06:06:39;1.07;;;0.83;;
17598;SDS011;8918;52.092;5.232;2024-03-02T06:09:05;1.93;;;0.80;;
17598;SDS011;8918;52.092;5.232;2024-03-02T06:11:36;2.70;;;0.90;;
17598;SDS011;8918;52.092;5.232;2024-03-02T06:14:02;2.63;;;0.80;;
17598;SDS011;8918;52.092;5.232;2024-03-02T06:16:31;2.07;;;0.73;;
17598;SDS011;8918;52.092;5.232;2024-03-02T06:18:58;1.93;;;0.80;;
17598;SDS011;8918;52.092;5.232;2024-03-02T06:21:24;1.93;;;0.73;;
17598;SDS011;8918;52.092;5.232;2024-03-02T06:23:49;1.57;;;0.73;;
17598;SDS011;8918;52.092;5.232;2024-03-02T06:26:15;4.33;;;0.80;;
17598;SDS011;8918;52.092;5.232;2024-03-02T06:28:41;1.77;;;0.90;;
17598;SDS011;8918;52.092;5.232;2024-03-02T06:31:06;1.50;;;0.80;;
17598;SDS011;8918;52.092;5.232;2024-03-02T06:33:32;1.57;;;0.70;;
17598;SDS011;8918;52.092;5.232;2024-03-02T06:35:58;3.10;;;1.03;;
17598;SDS011;8918;52.092;5.232;2024-03-02T06:38:23;2.30;;;0.90;;
17598;SDS011;8918;52.092;5.232;2024-03-02T06:40:49;1.00;;;0.80;;
17598;SDS011;8918;52.092;5.232;2024-03-02T06:43:14;2.07;;;0.93;;
17598;SDS011;8918;52.092;5.232;2024-03-02T06:45:40;2.90;;;0.90;;
17598;SDS011;8918;52.092;5.232;2024-03-02T06:48:06;2.53;;;0.90;;
17598;SDS011;8918;52.092;5.232;2024-03-02T06:50:32;2.30;;;0.80;;
17598;SDS011;8918;52.092;5.232;2024-03-02T06:52:57;1.63;;;0.80;;
17598;SDS011;8918;52.092;5.232;2024-03-02T06:55:23;1.40;;;0.80;;
17598;SDS011;8918;52.092;5.232;2024-03-02T06:57:52;1.20;;;0.90;;
17598;SDS011;8918;52.092;5.232;2024-03-02T07:00:19;1.93;;;0.90;;
17598;SDS011;8918;52.092;5.232;2024-03-02T07:02:45;3.60;;;1.20;;
17598;SDS011;8918;52.092;5.232;2024-03-02T07:05:11;1.13;;;0.80;;
17598;SDS011;8918;52.092;5.232;2024-03-02T07:07:37;1.57;;;0.80;;
17598;SDS011;8918;52.092;5.232;2024-03-02T07:10:03;1.80;;;0.70;;
17598;SDS011;8918;52.092;5.232;2024-03-02T07:12:29;2.23;;;0.90;;
17598;SDS011;8918;52.092;5.232;2024-03-02T07:14:56;2.77;;;0.90;;
17598;SDS011;8918;52.092;5.232;2024-03-02T07:17:28;1.27;;;0.80;;
17598;SDS011;8918;52.092;5.232;2024-03-02T07:19:54;1.30;;;0.90;;
17598;SDS011;8918;52.092;5.232;2024-03-02T07:22:20;2.83;;;1.10;;
17598;SDS011;8918;52.092;5.232;2024-03-02T07:24:45;1.77;;;0.80;;
17598;SDS011;8918;52.092;5.232;2024-03-02T07:27:11;3.23;;;0.90;;
17598;SDS011;8918;52.092;5.232;2024-03-02T07:29:46;2.63;;;0.90;;
17598;SDS011;8918;52.092;5.232;2024-03-02T07:32:12;1.23;;;0.80;;
17598;SDS011;8918;52.092;5.232;2024-03-02T07:34:38;2.80;;;1.10;;
17598;SDS011;8918;52.092;5.232;2024-03-02T07:37:03;2.40;;;0.90;;
17598;SDS011;8918;52.092;5.232;2024-03-02T07:39:31;1.77;;;0.90;;
17598;SDS011;8918;52.092;5.232;2024-03-02T07:41:57;1.47;;;0.80;;
17598;SDS011;8918;52.092;5.232;2024-03-02T07:44:23;1.70;;;0.80;;
17598;SDS011;8918;52.092;5.232;2024-03-02T07:46:49;2.27;;;0.90;;
17598;SDS011;8918;52.092;5.232;2024-03-02T07:49:15;2.50;;;0.93;;
17598;SDS011;8918;52.092;5.232;2024-03-02T07:51:44;1.83;;;0.97;;
17598;SDS011;8918;52.092;5.232;2024-03-02T07:54:09;2.70;;;0.80;;
17598;SDS011;8918;52.092;5.232;2024-03-02T07:56:35;1.70;;;0.83;;
17598;SDS011;8918;52.092;5.232;2024-03-02T07:59:01;1.93;;;0.87;;
17598;SDS011;8918;52.092;5.232;2024-03-02T08:01:30;1.93;;;0.80;;
17598;SDS011;8918;52.092;5.232;2024-03-02T08:03:57;1.80;;;0.80;;
17598;SDS011;8918;52.092;5.232;2024-03-02T08:06:26;1.73;;;0.70;;
17598;SDS011;8918;52.092;5.232;2024-03-02T08:08:54;2.43;;;0.80;;
17598;SDS011;8918;52.092;5.232;2024-03-02T08:11:23;2.50;;;0.80;;
17598;SDS011;8918;52.092;5.232;2024-03-02T08:13:49;2.57;;;0.90;;
17598;SDS011;8918;52.092;5.232;2024-03-02T08:16:15;0.80;;;0.70;;
17598;SDS011;8918;52.092;5.232;2024-03-02T08:18:44;2.63;;;0.77;;
17598;SDS011;8918;52.092;5.232;2024-03-02T08:21:12;2.10;;;0.90;;
17598;SDS011;8918;52.092;5.232;2024-03-02T08:23:42;2.13;;;1.10;;
17598;SDS011;8918;52.092;5.232;2024-03-02T08:26:11;2.80;;;0.93;;
17598;SDS011;8918;52.092;5.232;2024-03-02T08:28:37;1.43;;;0.77;;
17598;SDS011;8918;52.092;5.232;2024-03-02T08:31:05;2.10;;;0.80;;
17598;SDS011;8918;52.092;5.232;2024-03-02T08:33:31;3.03;;;0.90;;
17598;SDS011;8918;52.092;5.232;2024-03-02T08:35:56;1.87;;;0.80;;
17598;SDS011;8918;52.092;5.232;2024-03-02T08:38:22;1.20;;;0.90;;
17598;SDS011;8918;52.092;5.232;2024-03-02T08:40:50;1.10;;;0.73;;
17598;SDS011;8918;52.092;5.232;2024-03-02T08:43:15;2.57;;;0.80;;
17598;SDS011;8918;52.092;5.232;2024-03-02T08:45:41;1.67;;;0.80;;
17598;SDS011;8918;52.092;5.232;2024-03-02T08:48:07;2.13;;;0.70;;
17598;SDS011;8918;52.092;5.232;2024-03-02T08:50:33;2.67;;;0.90;;
17598;SDS011;8918;52.092;5.232;2024-03-02T08:52:59;1.00;;;0.63;;
17598;SDS011;8918;52.092;5.232;2024-03-02T08:55:26;1.77;;;1.10;;
17598;SDS011;8918;52.092;5.232;2024-03-02T08:57:51;1.90;;;1.00;;
17598;SDS011;8918;52.092;5.232;2024-03-02T09:00:17;4.03;;;0.90;;
17598;SDS011;8918;52.092;5.232;2024-03-02T09:02:44;2.20;;;0.97;;
17598;SDS011;8918;52.092;5.232;2024-03-02T09:05:09;2.07;;;1.00;;
17598;SDS011;8918;52.092;5.232;2024-03-02T09:07:35;2.37;;;0.90;;
17598;SDS011;8918;52.092;5.232;2024-03-02T09:10:01;2.80;;;0.83;;
17598;SDS011;8918;52.092;5.232;2024-03-02T09:12:26;3.43;;;1.10;;
17598;SDS011;8918;52.092;5.232;2024-03-02T09:14:52;3.73;;;1.03;;
17598;SDS011;8918;52.092;5.232;2024-03-02T09:17:22;3.10;;;1.57;;
17598;SDS011;8918;52.092;5.232;2024-03-02T09:19:48;4.50;;;1.10;;
17598;SDS011;8918;52.092;5.232;2024-03-02T09:22:17;3.73;;;1.20;;
17598;SDS011;8918;52.092;5.232;2024-03-02T09:24:43;4.13;;;0.93;;
17598;SDS011;8918;52.092;5.232;2024-03-02T09:27:09;3.60;;;0.97;;
17598;SDS011;8918;52.092;5.232;2024-03-02T09:29:34;3.83;;;1.17;;
17598;SDS011;8918;52.092;5.232;2024-03-02T09:32:00;4.33;;;1.00;;
17598;SDS011;8918;52.092;5.232;2024-03-02T09:34:25;1.57;;;0.80;;
17598;SDS011;8918;52.092;5.232;2024-03-02T09:36:51;3.17;;;1.10;;
17598;SDS011;8918;52.092;5.232;2024-03-02T09:39:17;4.33;;;1.00;;
17598;SDS011;8918;52.092;5.232;2024-03-02T09:41:43;2.50;;;1.00;;
17598;SDS011;8918;52.092;5.232;2024-03-02T09:44:09;3.07;;;0.90;;
17598;SDS011;8918;52.092;5.232;2024-03-02T09:46:35;4.97;;;1.20;;
17598;SDS011;8918;52.092;5.232;2024-03-02T09:49:01;3.80;;;1.00;;
17598;SDS011;8918;52.092;5.232;2024-03-02T09:51:27;3.33;;;1.37;;
17598;SDS011;8918;52.092;5.232;2024-03-02T09:53:56;3.43;;;1.10;;
17598;SDS011;8918;52.092;5.232;2024-03-02T09:56:22;3.77;;;1.27;;
17598;SDS011;8918;52.092;5.232;2024-03-02T09:58:47;3.27;;;1.03;;
17598;SDS011;8918;52.092;5.232;2024-03-02T10:01:13;4.60;;;1.27;;
17598;SDS011;8918;52.092;5.232;2024-03-02T10:03:39;3.67;;;1.10;;
17598;SDS011;8918;52.092;5.232;2024-03-02T10:06:26;3.07;;;1.10;;
17598;SDS011;8918;52.092;5.232;2024-03-02T10:08:53;3.33;;;1.07;;
17598;SDS011;8918;52.092;5.232;2024-03-02T10:11:33;4.00;;;1.10;;
17598;SDS011;8918;52.092;5.232;2024-03-02T10:16:38;6.30;;;1.20;;
17598;SDS011;8918;52.092;5.232;2024-03-02T10:19:18;4.23;;;0.97;;
17598;SDS011;8918;52.092;5.232;2024-03-02T10:21:48;3.37;;;1.33;;
17598;SDS011;8918;52.092;5.232;2024-03-02T10:24:18;4.53;;;1.00;;
17598;SDS011;8918;52.092;5.232;2024-03-02T10:26:44;3.77;;;1.10;;
17598;SDS011;8918;52.092;5.232;2024-03-02T10:29:10;3.23;;;1.00;;
17598;SDS011;8918;52.092;5.232;2024-03-02T10:31:40;4.67;;;1.10;;
17598;SDS011;8918;52.092;5.232;2024-03-02T10:34:07;4.30;;;0.97;;
17598;SDS011;8918;52.092;5.232;2024-03-02T10:36:34;3.67;;;0.93;;
17598;SDS011;8918;52.092;5.232;2024-03-02T10:39:03;2.20;;;0.90;;
17598;SDS011;8918;52.092;5.232;2024-03-02T10:41:32;4.13;;;1.30;;
17598;SDS011;8918;52.092;5.232;2024-03-02T10:44:05;2.63;;;1.00;;
17598;SDS011;8918;52.092;5.232;2024-03-02T10:46:33;2.93;;;1.00;;
17598;SDS011;8918;52.092;5.232;2024-03-02T10:49:00;2.40;;;1.10;;
17598;SDS011;8918;52.092;5.232;2024-03-02T10:51:28;2.20;;;0.90;;
17598;SDS011;8918;52.092;5.232;2024-03-02T10:53:59;4.37;;;1.10;;
17598;SDS011;8918;52.092;5.232;2024-03-02T10:56:38;3.20;;;1.00;;
17598;SDS011;8918;52.092;5.232;2024-03-02T11:01:59;1.90;;;1.00;;
17598;SDS011;8918;52.092;5.232;2024-03-02T11:04:27;4.38;;;1.05;;
17598;SDS011;8918;52.092;5.232;2024-03-02T11:06:59;2.58;;;1.00;;
17598;SDS011;8918;52.092;5.232;2024-03-02T11:09:37;2.70;;;1.15;;
17598;SDS011;8918;52.092;5.232;2024-03-02T11:14:37;2.45;;;1.00;;
17598;SDS011;8918;52.092;5.232;2024-03-02T11:17:08;2.53;;;1.00;;
17598;SDS011;8918;52.092;5.232;2024-03-02T11:19:35;3.40;;;0.88;;
17598;SDS011;8918;52.092;5.232;2024-03-02T11:22:03;3.85;;;1.02;;
17598;SDS011;8918;52.092;5.232;2024-03-02T11:24:30;2.45;;;1.00;;
17598;SDS011;8918;52.092;5.232;2024-03-02T11:27:00;2.30;;;1.35;;
17598;SDS011;8918;52.092;5.232;2024-03-02T11:32:01;3.13;;;1.40;;
17598;SDS011;8918;52.092;5.232;2024-03-02T11:34:34;2.58;;;0.90;;
17598;SDS011;8918;52.092;5.232;2024-03-02T11:37:01;2.28;;;1.00;;
17598;SDS011;8918;52.092;5.232;2024-03-02T11:39:27;2.03;;;0.88;;
17598;SDS011;8918;52.092;5.232;2024-03-02T11:41:55;2.63;;;0.95;;
17598;SDS011;8918;52.092;5.232;2024-03-02T11:44:22;2.30;;;0.95;;
17598;SDS011;8918;52.092;5.232;2024-03-02T11:46:52;1.65;;;0.93;;
17598;SDS011;8918;52.092;5.232;2024-03-02T11:52:04;3.45;;;1.17;;
17598;SDS011;8918;52.092;5.232;2024-03-02T11:54:32;2.83;;;1.27;;
17598;SDS011;8918;52.092;5.232;2024-03-02T11:57:02;2.90;;;1.30;;
17598;SDS011;8918;52.092;5.232;2024-03-02T11:59:29;2.10;;;1.05;;
17598;SDS011;8918;52.092;5.232;2024-03-02T12:01:55;3.90;;;1.40;;
17598;SDS011;8918;52.092;5.232;2024-03-02T12:04:21;5.13;;;1.42;;
17598;SDS011;8918;52.092;5.232;2024-03-02T12:06:48;2.22;;;1.10;;
17598;SDS011;8918;52.092;5.232;2024-03-02T12:09:26;2.33;;;1.20;;
17598;SDS011;8918;52.092;5.232;2024-03-02T12:14:32;2.30;;;1.02;;
17598;SDS011;8918;52.092;5.232;2024-03-02T12:16:58;3.08;;;1.00;;
17598;SDS011;8918;52.092;5.232;2024-03-02T12:19:25;1.73;;;0.98;;
17598;SDS011;8918;52.092;5.232;2024-03-02T12:21:52;4.03;;;1.13;;
17598;SDS011;8918;52.092;5.232;2024-03-02T12:24:20;2.92;;;1.00;;
17598;SDS011;8918;52.092;5.232;2024-03-02T12:26:47;2.22;;;1.00;;
17598;SDS011;8918;52.092;5.232;2024-03-02T12:29:14;3.45;;;1.05;;
17598;SDS011;8918;52.092;5.232;2024-03-02T12:31:40;3.22;;;0.95;;
17598;SDS011;8918;52.092;5.232;2024-03-02T12:34:07;1.92;;;1.00;;
17598;SDS011;8918;52.092;5.232;2024-03-02T12:36:39;2.88;;;1.02;;
17598;SDS011;8918;52.092;5.232;2024-03-02T12:39:06;2.60;;;1.20;;
17598;SDS011;8918;52.092;5.232;2024-03-02T12:41:38;3.30;;;1.10;;
17598;SDS011;8918;52.092;5.232;2024-03-02T12:44:04;3.92;;;1.05;;
17598;SDS011;8918;52.092;5.232;2024-03-02T12:46:30;3.67;;;1.20;;
17598;SDS011;8918;52.092;5.232;2024-03-02T12:48:57;2.42;;;1.02;;
17598;SDS011;8918;52.092;5.232;2024-03-02T12:51:31;1.92;;;1.00;;
17598;SDS011;8918;52.092;5.232;2024-03-02T12:53:57;3.20;;;1.10;;
17598;SDS011;8918;52.092;5.232;2024-03-02T12:56:26;3.67;;;1.38;;
17598;SDS011;8918;52.092;5.232;2024-03-02T12:58:53;1.88;;;0.90;;
17598;SDS011;8918;52.092;5.232;2024-03-02T13:01:20;3.38;;;1.20;;
17598;SDS011;8918;52.092;5.232;2024-03-02T13:03:47;3.72;;;1.10;;
17598;SDS011;8918;52.092;5.232;2024-03-02T13:06:17;3.08;;;1.00;;
17598;SDS011;8918;52.092;5.232;2024-03-02T13:08:43;3.72;;;1.23;;
17598;SDS011;8918;52.092;5.232;2024-03-02T13:11:10;2.00;;;0.93;;
17598;SDS011;8918;52.092;5.232;2024-03-02T13:13:35;3.70;;;1.35;;
17598;SDS011;8918;52.092;5.232;2024-03-02T13:16:02;2.92;;;1.13;;
17598;SDS011;8918;52.092;5.232;2024-03-02T13:18:29;1.90;;;0.90;;
17598;SDS011;8918;52.092;5.232;2024-03-02T13:20:56;1.77;;;1.08;;
17598;SDS011;8918;52.092;5.232;2024-03-02T13:23:22;4.93;;;1.40;;
17598;SDS011;8918;52.092;5.232;2024-03-02T13:25:47;1.95;;;1.00;;
17598;SDS011;8918;52.092;5.232;2024-03-02T13:28:13;2.45;;;1.05;;
17598;SDS011;8918;52.092;5.232;2024-03-02T13:30:38;3.03;;;1.15;;
17598;SDS011;8918;52.092;5.232;2024-03-02T13:33:04;3.47;;;1.10;;
17598;SDS011;8918;52.092;5.232;2024-03-02T13:35:30;3.40;;;1.20;;
17598;SDS011;8918;52.092;5.232;2024-03-02T13:37:55;3.17;;;1.20;;
17598;SDS011;8918;52.092;5.232;2024-03-02T13:40:21;2.92;;;1.02;;
17598;SDS011;8918;52.092;5.232;2024-03-02T13:42:49;3.08;;;1.17;;
17598;SDS011;8918;52.092;5.232;2024-03-02T13:45:16;5.03;;;1.00;;
17598;SDS011;8918;52.092;5.232;2024-03-02T13:47:43;3.42;;;1.23;;
17598;SDS011;8918;52.092;5.232;2024-03-02T13:50:09;3.70;;;1.10;;
17598;SDS011;8918;52.092;5.232;2024-03-02T13:52:35;3.92;;;1.35;;
17598;SDS011;8918;52.092;5.232;2024-03-02T13:55:00;2.65;;;1.30;;
17598;SDS011;8918;52.092;5.232;2024-03-02T13:57:26;3.50;;;1.23;;
17598;SDS011;8918;52.092;5.232;2024-03-02T13:59:52;2.85;;;1.20;;
17598;SDS011;8918;52.092;5.232;2024-03-02T14:02:21;3.60;;;1.45;;
17598;SDS011;8918;52.092;5.232;2024-03-02T14:04:48;2.55;;;1.10;;
17598;SDS011;8918;52.092;5.232;2024-03-02T14:07:14;2.28;;;1.08;;
17598;SDS011;8918;52.092;5.232;2024-03-02T14:09:40;3.80;;;1.33;;
17598;SDS011;8918;52.092;5.232;2024-03-02T14:12:05;3.38;;;1.58;;
17598;SDS011;8918;52.092;5.232;2024-03-02T14:14:32;4.82;;;1.80;;
17598;SDS011;8918;52.092;5.232;2024-03-02T14:16:57;4.47;;;2.00;;
17598;SDS011;8918;52.092;5.232;2024-03-02T14:19:30;5.18;;;2.05;;
17598;SDS011;8918;52.092;5.232;2024-03-02T14:21:56;4.90;;;1.70;;
17598;SDS011;8918;52.092;5.232;2024-03-02T14:24:22;4.10;;;1.55;;
17598;SDS011;8918;52.092;5.232;2024-03-02T14:26:51;5.32;;;2.13;;
17598;SDS011;8918;52.092;5.232;2024-03-02T14:29:17;4.75;;;1.70;;
17598;SDS011;8918;52.092;5.232;2024-03-02T14:31:43;3.80;;;1.83;;
17598;SDS011;8918;52.092;5.232;2024-03-02T14:34:09;3.47;;;1.55;;
17598;SDS011;8918;52.092;5.232;2024-03-02T14:36:34;2.72;;;1.60;;
17598;SDS011;8918;52.092;5.232;2024-03-02T14:39:00;4.75;;;3.85;;
17598;SDS011;8918;52.092;5.232;2024-03-02T14:41:26;6.30;;;2.38;;
17598;SDS011;8918;52.092;5.232;2024-03-02T14:43:51;3.47;;;1.55;;
17598;SDS011;8918;52.092;5.232;2024-03-02T14:46:17;3.30;;;1.90;;
17598;SDS011;8918;52.092;5.232;2024-03-02T14:48:43;10.38;;;6.72;;
17598;SDS011;8918;52.092;5.232;2024-03-02T14:51:09;15.75;;;11.20;;
17598;SDS011;8918;52.092;5.232;2024-03-02T14:53:35;5.90;;;4.00;;
17598;SDS011;8918;52.092;5.232;2024-03-02T14:56:03;4.50;;;2.67;;
17598;SDS011;8918;52.092;5.232;2024-03-02T14:58:29;8.90;;;3.55;;
17598;SDS011;8918;52.092;5.232;2024-03-02T15:00:54;6.10;;;3.72;;
17598;SDS011;8918;52.092;5.232;2024-03-02T15:03:20;11.52;;;5.88;;
17598;SDS011;8918;52.092;5.232;2024-03-02T15:05:46;14.05;;;7.15;;
17598;SDS011;8918;52.092;5.232;2024-03-02T15:08:13;4.30;;;2.22;;
17598;SDS011;8918;52.092;5.232;2024-03-02T15:10:38;10.00;;;5.95;;
17598;SDS011;8918;52.092;5.232;2024-03-02T15:13:04;7.45;;;4.00;;
17598;SDS011;8918;52.092;5.232;2024-03-02T15:15:29;5.25;;;2.95;;
17598;SDS011;8918;52.092;5.232;2024-03-02T15:17:55;9.52;;;3.78;;
17598;SDS011;8918;52.092;5.232;2024-03-02T15:20:20;3.40;;;1.77;;